sensor_id;sensor_type;location;lat;lon;timestamp;pressure;altitude;pressure_sealevel;temperature;humidity
4410;BME280;2218;51.408;7.208;2023-05-16T00:01:59;99745.34;;;21.25;47.63
4410;BME280;2218;51.408;7.208;2023-05-16T00:04:28;99748.06;;;21.23;47.60
4410;BME280;2218;51.408;7.208;2023-05-16T00:06:55;99747.22;;;21.23;47.72
4410;BME280;2218;51.408;7.208;2023-05-16T00:09:23;99747.38;;;21.21;47.59
4410;BME280;2218;51.408;7.208;2023-05-16T00:11:50;99747.38;;;21.21;47.39
4410;BME280;2218;51.408;7.208;2023-05-16T00:14:17;99752.66;;;21.21;47.70
4410;BME280;2218;51.408;7.208;2023-05-16T00:16:45;99756.38;;;21.19;47.58
4410;BME280;2218;51.408;7.208;2023-05-16T00:19:12;99758.16;;;21.18;47.95
4410;BME280;2218;51.408;7.208;2023-05-16T00:21:39;99755.50;;;21.18;47.65
4410;BME280;2218;51.408;7.208;2023-05-16T00:24:07;99764.41;;;21.17;47.97
4410;BME280;2218;51.408;7.208;2023-05-16T00:26:35;99768.00;;;21.16;47.73
4410;BME280;2218;51.408;7.208;2023-05-16T00:29:02;99771.50;;;21.16;47.83
4410;BME280;2218;51.408;7.208;2023-05-16T00:31:30;99772.47;;;21.15;47.69
4410;BME280;2218;51.408;7.208;2023-05-16T00:33:57;99772.59;;;21.14;47.91
4410;BME280;2218;51.408;7.208;2023-05-16T00:36:24;99780.50;;;21.14;47.77
4410;BME280;2218;51.408;7.208;2023-05-16T00:38:51;99771.75;;;21.13;47.37
4410;BME280;2218;51.408;7.208;2023-05-16T00:41:18;99777.97;;;21.12;47.96
4410;BME280;2218;51.408;7.208;2023-05-16T00:43:47;99774.50;;;21.12;47.82
4410;BME280;2218;51.408;7.208;2023-05-16T00:46:14;99773.66;;;21.11;47.86
4410;BME280;2218;51.408;7.208;2023-05-16T00:48:41;99778.09;;;21.11;47.74
4410;BME280;2218;51.408;7.208;2023-05-16T00:51:08;99775.44;;;21.11;48.08
4410;BME280;2218;51.408;7.208;2023-05-16T00:53:35;99775.56;;;21.09;47.83
4410;BME280;2218;51.408;7.208;2023-05-16T00:56:04;99775.56;;;21.09;47.97
4410;BME280;2218;51.408;7.208;2023-05-16T00:58:32;99776.50;;;21.08;48.09
4410;BME280;2218;51.408;7.208;2023-05-16T01:01:00;99773.88;;;21.08;47.71
4410;BME280;2218;51.408;7.208;2023-05-16T01:03:28;99778.31;;;21.08;48.13
4410;BME280;2218;51.408;7.208;2023-05-16T01:05:56;99777.47;;;21.07;47.72
4410;BME280;2218;51.408;7.208;2023-05-16T01:08:23;99773.03;;;21.08;47.72
4410;BME280;2218;51.408;7.208;2023-05-16T01:11:03;99773.03;;;21.08;48.25
4410;BME280;2218;51.408;7.208;2023-05-16T01:13:47;99779.28;;;21.07;47.74
4410;BME280;2218;51.408;7.208;2023-05-16T01:16:26;99780.25;;;21.06;47.90
4410;BME280;2218;51.408;7.208;2023-05-16T01:19:06;99778.56;;;21.05;47.77
4410;BME280;2218;51.408;7.208;2023-05-16T01:21:46;99776.88;;;21.04;47.84
4410;BME280;2218;51.408;7.208;2023-05-16T01:24:26;99787.47;;;21.04;48.02
4410;BME280;2218;51.408;7.208;2023-05-16T01:26:59;99792.75;;;21.04;47.87
4410;BME280;2218;51.408;7.208;2023-05-16T01:29:26;99798.97;;;21.03;47.87
4410;BME280;2218;51.408;7.208;2023-05-16T01:31:53;99798.13;;;21.02;48.19
4410;BME280;2218;51.408;7.208;2023-05-16T01:34:20;99795.47;;;21.02;48.05
4410;BME280;2218;51.408;7.208;2023-05-16T01:36:56;99802.56;;;21.02;48.19
4410;BME280;2218;51.408;7.208;2023-05-16T01:39:34;99800.88;;;21.01;48.11
4410;BME280;2218;51.408;7.208;2023-05-16T01:42:09;99801.84;;;21.00;48.26
4410;BME280;2218;51.408;7.208;2023-05-16T01:44:43;99807.13;;;21.00;48.21
4410;BME280;2218;51.408;7.208;2023-05-16T01:47:13;99814.31;;;20.98;48.23
4410;BME280;2218;51.408;7.208;2023-05-16T01:49:48;99826.59;;;20.99;48.15
4410;BME280;2218;51.408;7.208;2023-05-16T01:52:24;99822.25;;;20.98;47.96
4410;BME280;2218;51.408;7.208;2023-05-16T01:54:55;99825.84;;;20.97;47.98
4410;BME280;2218;51.408;7.208;2023-05-16T01:57:26;99827.66;;;20.96;48.32
4410;BME280;2218;51.408;7.208;2023-05-16T01:59:54;99832.94;;;20.96;47.85
4410;BME280;2218;51.408;7.208;2023-05-16T02:02:22;99842.66;;;20.96;48.29
4410;BME280;2218;51.408;7.208;2023-05-16T02:04:49;99846.28;;;20.95;48.07
4410;BME280;2218;51.408;7.208;2023-05-16T02:07:17;99845.44;;;20.94;48.22
4410;BME280;2218;51.408;7.208;2023-05-16T02:09:44;99848.16;;;20.92;48.33
4410;BME280;2218;51.408;7.208;2023-05-16T02:12:11;99852.50;;;20.94;47.71
4410;BME280;2218;51.408;7.208;2023-05-16T02:14:39;99843.84;;;20.91;48.13
4410;BME280;2218;51.408;7.208;2023-05-16T02:17:06;99851.78;;;20.91;48.33
4410;BME280;2218;51.408;7.208;2023-05-16T02:19:33;99855.38;;;20.90;48.32
4410;BME280;2218;51.408;7.208;2023-05-16T02:22:00;99858.13;;;20.89;48.20
4410;BME280;2218;51.408;7.208;2023-05-16T02:24:28;99861.63;;;20.89;48.16
4410;BME280;2218;51.408;7.208;2023-05-16T02:26:55;99853.69;;;20.89;48.17
4410;BME280;2218;51.408;7.208;2023-05-16T02:29:21;99860.78;;;20.89;47.86
4410;BME280;2218;51.408;7.208;2023-05-16T02:31:50;99864.47;;;20.86;48.15
4410;BME280;2218;51.408;7.208;2023-05-16T02:34:17;99864.47;;;20.86;48.08
4410;BME280;2218;51.408;7.208;2023-05-16T02:36:44;99865.44;;;20.85;48.31
4410;BME280;2218;51.408;7.208;2023-05-16T02:39:11;99871.44;;;20.87;48.18
4410;BME280;2218;51.408;7.208;2023-05-16T02:41:38;99875.03;;;20.86;47.97
4410;BME280;2218;51.408;7.208;2023-05-16T02:44:05;99876.84;;;20.86;48.10
4410;BME280;2218;51.408;7.208;2023-05-16T02:46:33;99882.25;;;20.84;47.99
4410;BME280;2218;51.408;7.208;2023-05-16T02:49:04;99878.78;;;20.84;48.23
4410;BME280;2218;51.408;7.208;2023-05-16T02:51:31;99888.47;;;20.83;48.19
4410;BME280;2218;51.408;7.208;2023-05-16T02:53:58;99888.47;;;20.83;48.06
4410;BME280;2218;51.408;7.208;2023-05-16T02:56:25;99889.41;;;20.82;48.08
4410;BME280;2218;51.408;7.208;2023-05-16T02:58:53;99891.09;;;20.83;48.13
4410;BME280;2218;51.408;7.208;2023-05-16T03:01:21;99898.19;;;20.83;47.94
4410;BME280;2218;51.408;7.208;2023-05-16T03:03:48;99892.91;;;20.83;48.18
4410;BME280;2218;51.408;7.208;2023-05-16T03:06:16;99895.53;;;20.83;47.92
4410;BME280;2218;51.408;7.208;2023-05-16T03:08:43;99894.69;;;20.82;48.10
4410;BME280;2218;51.408;7.208;2023-05-16T03:11:10;99893.03;;;20.81;48.10
4410;BME280;2218;51.408;7.208;2023-05-16T03:13:37;99899.16;;;20.82;48.34
4410;BME280;2218;51.408;7.208;2023-05-16T03:16:05;99909.72;;;20.82;48.15
4410;BME280;2218;51.408;7.208;2023-05-16T03:18:32;99908.88;;;20.81;48.24
4410;BME280;2218;51.408;7.208;2023-05-16T03:20:58;99914.16;;;20.81;48.01
4410;BME280;2218;51.408;7.208;2023-05-16T03:23:29;99912.47;;;20.80;48.00
4410;BME280;2218;51.408;7.208;2023-05-16T03:25:56;99913.31;;;20.81;48.03
4410;BME280;2218;51.408;7.208;2023-05-16T03:28:23;99920.41;;;20.80;47.80
4410;BME280;2218;51.408;7.208;2023-05-16T03:30:50;99917.75;;;20.80;47.91
4410;BME280;2218;51.408;7.208;2023-05-16T03:33:17;99916.91;;;20.80;48.24
4410;BME280;2218;51.408;7.208;2023-05-16T03:35:44;99909.84;;;20.80;48.03
4410;BME280;2218;51.408;7.208;2023-05-16T03:38:12;99923.03;;;20.80;48.03
4410;BME280;2218;51.408;7.208;2023-05-16T03:40:43;99927.56;;;20.78;47.99
4410;BME280;2218;51.408;7.208;2023-05-16T03:43:10;99924.00;;;20.79;48.12
4410;BME280;2218;51.408;7.208;2023-05-16T03:45:37;99931.09;;;20.79;48.55
4410;BME280;2218;51.408;7.208;2023-05-16T03:48:05;99939.00;;;20.79;48.20
4410;BME280;2218;51.408;7.208;2023-05-16T03:50:32;99939.84;;;20.79;48.06
4410;BME280;2218;51.408;7.208;2023-05-16T03:52:59;99945.22;;;20.78;48.00
4410;BME280;2218;51.408;7.208;2023-05-16T03:55:26;99944.38;;;20.77;48.03
4410;BME280;2218;51.408;7.208;2023-05-16T03:57:54;99950.50;;;20.78;48.06
4410;BME280;2218;51.408;7.208;2023-05-16T04:00:21;99951.34;;;20.78;48.02
4410;BME280;2218;51.408;7.208;2023-05-16T04:02:48;99965.50;;;20.77;48.23
4410;BME280;2218;51.408;7.208;2023-05-16T04:05:15;99966.47;;;20.76;47.95
4410;BME280;2218;51.408;7.208;2023-05-16T04:07:42;99968.16;;;20.77;47.94
4410;BME280;2218;51.408;7.208;2023-05-16T04:10:10;99970.78;;;20.77;47.92
4410;BME280;2218;51.408;7.208;2023-05-16T04:12:37;99968.16;;;20.77;47.98
4410;BME280;2218;51.408;7.208;2023-05-16T04:15:06;99978.72;;;20.77;47.76
4410;BME280;2218;51.408;7.208;2023-05-16T04:17:34;99977.75;;;20.78;47.47
4410;BME280;2218;51.408;7.208;2023-05-16T04:20:01;99982.94;;;20.80;47.49
4410;BME280;2218;51.408;7.208;2023-05-16T04:22:29;99985.47;;;20.81;47.32
4410;BME280;2218;51.408;7.208;2023-05-16T04:24:56;99990.63;;;20.83;47.36
4410;BME280;2218;51.408;7.208;2023-05-16T04:27:23;99991.47;;;20.83;47.53
4410;BME280;2218;51.408;7.208;2023-05-16T04:29:51;99994.03;;;20.85;47.37
4410;BME280;2218;51.408;7.208;2023-05-16T04:32:19;99998.34;;;20.86;47.23
4410;BME280;2218;51.408;7.208;2023-05-16T04:34:48;99993.91;;;20.86;47.01
4410;BME280;2218;51.408;7.208;2023-05-16T04:37:17;100003.53;;;20.87;46.83
4410;BME280;2218;51.408;7.208;2023-05-16T04:39:45;100010.53;;;20.88;47.10
4410;BME280;2218;51.408;7.208;2023-05-16T04:42:12;100013.03;;;20.90;46.82
4410;BME280;2218;51.408;7.208;2023-05-16T04:44:39;100018.31;;;20.90;46.84
4410;BME280;2218;51.408;7.208;2023-05-16T04:47:06;100016.53;;;20.90;46.93
4410;BME280;2218;51.408;7.208;2023-05-16T04:49:35;100021.81;;;20.90;46.81
4410;BME280;2218;51.408;7.208;2023-05-16T04:52:02;100023.50;;;20.91;46.92
4410;BME280;2218;51.408;7.208;2023-05-16T04:54:29;100015.56;;;20.91;47.07
4410;BME280;2218;51.408;7.208;2023-05-16T04:56:57;100023.38;;;20.93;46.73
4410;BME280;2218;51.408;7.208;2023-05-16T04:59:24;100019.88;;;20.92;46.88
4410;BME280;2218;51.408;7.208;2023-05-16T05:01:51;100018.97;;;20.94;46.75
4410;BME280;2218;51.408;7.208;2023-05-16T05:04:18;100025.94;;;20.95;47.08
4410;BME280;2218;51.408;7.208;2023-05-16T05:06:47;100028.56;;;20.95;46.87
4410;BME280;2218;51.408;7.208;2023-05-16T05:09:13;100028.34;;;20.98;47.24
4410;BME280;2218;51.408;7.208;2023-05-16T05:11:40;100025.47;;;21.01;47.07
4410;BME280;2218;51.408;7.208;2023-05-16T05:14:07;100038.13;;;21.08;46.74
4410;BME280;2218;51.408;7.208;2023-05-16T05:16:34;100040.56;;;21.11;46.90
4410;BME280;2218;51.408;7.208;2023-05-16T05:19:02;100038.56;;;21.15;47.01
4410;BME280;2218;51.408;7.208;2023-05-16T05:21:29;100041.72;;;21.20;46.50
4410;BME280;2218;51.408;7.208;2023-05-16T05:23:57;100051.13;;;21.24;46.86
4410;BME280;2218;51.408;7.208;2023-05-16T05:26:24;100051.63;;;21.29;46.46
4410;BME280;2218;51.408;7.208;2023-05-16T05:28:53;100058.63;;;21.30;46.45
4410;BME280;2218;51.408;7.208;2023-05-16T05:31:20;100057.34;;;21.36;46.85
4410;BME280;2218;51.408;7.208;2023-05-16T05:33:48;100063.25;;;21.39;46.49
4410;BME280;2218;51.408;7.208;2023-05-16T05:36:15;100061.56;;;21.38;46.36
4410;BME280;2218;51.408;7.208;2023-05-16T05:38:42;100073.50;;;21.44;46.89
4410;BME280;2218;51.408;7.208;2023-05-16T05:41:10;100072.41;;;21.47;46.73
4410;BME280;2218;51.408;7.208;2023-05-16T05:43:37;100077.56;;;21.48;46.64
4410;BME280;2218;51.408;7.208;2023-05-16T05:46:05;100071.13;;;21.52;46.57
4410;BME280;2218;51.408;7.208;2023-05-16T05:48:32;100069.09;;;21.56;46.73
4410;BME280;2218;51.408;7.208;2023-05-16T05:51:00;100084.97;;;21.56;46.56
4410;BME280;2218;51.408;7.208;2023-05-16T05:53:27;100077.66;;;21.59;46.79
4410;BME280;2218;51.408;7.208;2023-05-16T05:55:54;100084.63;;;21.60;46.46
4410;BME280;2218;51.408;7.208;2023-05-16T05:58:22;100088.13;;;21.61;46.31
4410;BME280;2218;51.408;7.208;2023-05-16T06:00:49;100087.91;;;21.64;46.55
4410;BME280;2218;51.408;7.208;2023-05-16T06:03:16;100089.72;;;21.63;46.45
4410;BME280;2218;51.408;7.208;2023-05-16T06:05:43;100093.69;;;21.69;46.34
4410;BME280;2218;51.408;7.208;2023-05-16T06:08:10;100095.06;;;21.75;46.12
4410;BME280;2218;51.408;7.208;2023-05-16T06:10:37;100095.06;;;21.75;46.20
4410;BME280;2218;51.408;7.208;2023-05-16T06:13:04;100097.81;;;21.73;45.96
4410;BME280;2218;51.408;7.208;2023-05-16T06:15:32;100093.25;;;21.75;46.68
4410;BME280;2218;51.408;7.208;2023-05-16T06:17:59;100098.41;;;21.77;46.08
4410;BME280;2218;51.408;7.208;2023-05-16T06:20:26;100103.09;;;21.73;45.04
4410;BME280;2218;51.408;7.208;2023-05-16T06:22:53;100104.66;;;21.76;45.12
4410;BME280;2218;51.408;7.208;2023-05-16T06:25:20;100109.13;;;21.75;45.20
4410;BME280;2218;51.408;7.208;2023-05-16T06:27:47;100110.91;;;21.75;45.74
4410;BME280;2218;51.408;7.208;2023-05-16T06:30:14;100104.53;;;21.77;44.98
4410;BME280;2218;51.408;7.208;2023-05-16T06:32:42;100104.34;;;21.80;45.28
4410;BME280;2218;51.408;7.208;2023-05-16T06:35:09;100107.69;;;21.82;44.16
4410;BME280;2218;51.408;7.208;2023-05-16T06:37:36;100111.09;;;21.84;44.13
4410;BME280;2218;51.408;7.208;2023-05-16T06:40:05;100113.00;;;21.82;44.30
4410;BME280;2218;51.408;7.208;2023-05-16T06:42:32;100126.97;;;21.84;44.87
4410;BME280;2218;51.408;7.208;2023-05-16T06:44:59;100115.22;;;21.88;43.57
4410;BME280;2218;51.408;7.208;2023-05-16T06:47:26;100116.97;;;21.88;43.69
4410;BME280;2218;51.408;7.208;2023-05-16T06:49:54;100113.28;;;21.90;43.41
4410;BME280;2218;51.408;7.208;2023-05-16T06:52:21;100115.94;;;21.90;43.49
4410;BME280;2218;51.408;7.208;2023-05-16T06:54:48;100115.94;;;21.90;43.67
4410;BME280;2218;51.408;7.208;2023-05-16T06:57:16;100117.59;;;21.91;43.64
4410;BME280;2218;51.408;7.208;2023-05-16T06:59:43;100112.31;;;21.91;43.75
4410;BME280;2218;51.408;7.208;2023-05-16T07:02:10;100111.25;;;21.94;42.40
4410;BME280;2218;51.408;7.208;2023-05-16T07:04:37;100121.84;;;21.94;42.52
4410;BME280;2218;51.408;7.208;2023-05-16T07:07:06;100123.41;;;21.97;42.94
4410;BME280;2218;51.408;7.208;2023-05-16T07:09:33;100120.66;;;21.98;43.12
4410;BME280;2218;51.408;7.208;2023-05-16T07:14:27;100127.72;;;21.98;43.20
4410;BME280;2218;51.408;7.208;2023-05-16T07:16:54;100124.38;;;21.96;43.42
4410;BME280;2218;51.408;7.208;2023-05-16T07:19:21;100123.41;;;21.97;43.57
4410;BME280;2218;51.408;7.208;2023-05-16T07:21:48;100120.75;;;21.97;43.57
4410;BME280;2218;51.408;7.208;2023-05-16T07:24:16;100126.06;;;21.97;43.36
4410;BME280;2218;51.408;7.208;2023-05-16T07:26:43;100125.09;;;21.98;42.92
4410;BME280;2218;51.408;7.208;2023-05-16T07:29:10;100127.00;;;21.96;41.69
4410;BME280;2218;51.408;7.208;2023-05-16T07:31:37;100133.91;;;21.98;42.13
4410;BME280;2218;51.408;7.208;2023-05-16T07:34:04;100131.13;;;22.00;42.41
4410;BME280;2218;51.408;7.208;2023-05-16T07:36:33;100121.59;;;21.97;42.23
4410;BME280;2218;51.408;7.208;2023-05-16T07:39:00;100125.22;;;21.96;41.77
4410;BME280;2218;51.408;7.208;2023-05-16T07:41:29;100129.44;;;21.99;41.69
4410;BME280;2218;51.408;7.208;2023-05-16T07:43:56;100131.13;;;22.00;41.96
4410;BME280;2218;51.408;7.208;2023-05-16T07:46:23;100130.16;;;22.01;42.12
4410;BME280;2218;51.408;7.208;2023-05-16T07:48:50;100133.78;;;22.00;42.19
4410;BME280;2218;51.408;7.208;2023-05-16T07:53:44;100139.19;;;21.98;41.56
4410;BME280;2218;51.408;7.208;2023-05-16T07:56:11;100148.69;;;22.01;40.89
4410;BME280;2218;51.408;7.208;2023-05-16T07:58:40;100132.81;;;22.01;41.28
4410;BME280;2218;51.408;7.208;2023-05-16T08:01:07;100139.78;;;22.02;40.39
4410;BME280;2218;51.408;7.208;2023-05-16T08:03:34;100131.84;;;22.02;40.91
4410;BME280;2218;51.408;7.208;2023-05-16T08:06:02;100134.50;;;22.02;41.63
4410;BME280;2218;51.408;7.208;2023-05-16T08:08:29;100136.16;;;22.03;42.04
4410;BME280;2218;51.408;7.208;2023-05-16T08:10:56;100134.50;;;22.02;41.90
4410;BME280;2218;51.408;7.208;2023-05-16T08:13:23;100140.63;;;22.02;41.51
4410;BME280;2218;51.408;7.208;2023-05-16T08:15:51;100137.13;;;22.02;41.91
4410;BME280;2218;51.408;7.208;2023-05-16T08:18:18;100150.28;;;22.03;42.19
4410;BME280;2218;51.408;7.208;2023-05-16T08:20:45;100142.34;;;22.03;41.68
4410;BME280;2218;51.408;7.208;2023-05-16T08:23:12;100135.25;;;22.04;41.54
4410;BME280;2218;51.408;7.208;2023-05-16T08:25:40;100142.34;;;22.03;41.69
4410;BME280;2218;51.408;7.208;2023-05-16T08:28:07;100148.47;;;22.04;42.04
4410;BME280;2218;51.408;7.208;2023-05-16T08:30:34;100141.38;;;22.04;41.27
4410;BME280;2218;51.408;7.208;2023-05-16T08:33:02;100150.16;;;22.05;41.46
4410;BME280;2218;51.408;7.208;2023-05-16T08:35:30;100148.47;;;22.04;41.73
4410;BME280;2218;51.408;7.208;2023-05-16T08:37:57;100149.31;;;22.04;41.46
4410;BME280;2218;51.408;7.208;2023-05-16T08:40:25;100151.84;;;22.06;41.81
4410;BME280;2218;51.408;7.208;2023-05-16T08:42:52;100151.84;;;22.06;41.66
4410;BME280;2218;51.408;7.208;2023-05-16T08:45:20;100141.25;;;22.06;41.97
4410;BME280;2218;51.408;7.208;2023-05-16T08:47:49;100145.59;;;22.07;41.62
4410;BME280;2218;51.408;7.208;2023-05-16T08:50:18;100142.09;;;22.06;40.93
4410;BME280;2218;51.408;7.208;2023-05-16T08:52:50;100150.66;;;22.10;40.98
4410;BME280;2218;51.408;7.208;2023-05-16T08:55:19;100149.72;;;22.11;40.64
4410;BME280;2218;51.408;7.208;2023-05-16T08:57:49;100142.72;;;22.10;41.26
4410;BME280;2218;51.408;7.208;2023-05-16T09:00:17;100150.78;;;22.08;40.25
4410;BME280;2218;51.408;7.208;2023-05-16T09:02:45;100148.22;;;22.07;40.13
4410;BME280;2218;51.408;7.208;2023-05-16T09:05:14;100146.53;;;22.06;40.62
4410;BME280;2218;51.408;7.208;2023-05-16T09:07:44;100149.91;;;22.08;40.03
4410;BME280;2218;51.408;7.208;2023-05-16T09:10:12;100148.00;;;22.10;39.83
4410;BME280;2218;51.408;7.208;2023-05-16T09:12:40;100144.63;;;22.08;40.32
4410;BME280;2218;51.408;7.208;2023-05-16T09:15:09;100145.59;;;22.07;39.77
4410;BME280;2218;51.408;7.208;2023-05-16T09:17:38;100151.63;;;22.09;40.21
4410;BME280;2218;51.408;7.208;2023-05-16T09:20:10;100160.41;;;22.09;40.90
4410;BME280;2218;51.408;7.208;2023-05-16T09:22:39;100151.00;;;22.05;40.73
4410;BME280;2218;51.408;7.208;2023-05-16T09:25:08;100143.19;;;22.04;41.20
4410;BME280;2218;51.408;7.208;2023-05-16T09:27:42;100153.84;;;22.02;41.27
4410;BME280;2218;51.408;7.208;2023-05-16T09:30:10;100145.91;;;22.02;40.99
4410;BME280;2218;51.408;7.208;2023-05-16T09:32:43;100152.31;;;22.00;41.35
4410;BME280;2218;51.408;7.208;2023-05-16T09:35:14;100149.66;;;22.00;41.20
4410;BME280;2218;51.408;7.208;2023-05-16T09:37:44;100153.13;;;22.00;41.51
4410;BME280;2218;51.408;7.208;2023-05-16T09:40:14;100157.72;;;21.98;41.15
4410;BME280;2218;51.408;7.208;2023-05-16T09:42:41;100146.25;;;21.98;41.25
4410;BME280;2218;51.408;7.208;2023-05-16T09:45:11;100157.81;;;21.97;41.34
4410;BME280;2218;51.408;7.208;2023-05-16T09:47:39;100150.84;;;21.96;41.30
4410;BME280;2218;51.408;7.208;2023-05-16T09:50:13;100150.00;;;21.95;41.64
4410;BME280;2218;51.408;7.208;2023-05-16T09:52:41;100150.84;;;21.96;41.48
4410;BME280;2218;51.408;7.208;2023-05-16T09:55:09;100141.22;;;21.94;41.64
4410;BME280;2218;51.408;7.208;2023-05-16T09:57:38;100140.47;;;21.92;41.58
4410;BME280;2218;51.408;7.208;2023-05-16T10:00:09;100152.00;;;21.91;41.95
4410;BME280;2218;51.408;7.208;2023-05-16T10:02:38;100146.72;;;21.91;41.71
4410;BME280;2218;51.408;7.208;2023-05-16T10:05:05;100145.16;;;21.89;42.05
4410;BME280;2218;51.408;7.208;2023-05-16T10:07:33;100137.09;;;21.90;42.11
4410;BME280;2218;51.408;7.208;2023-05-16T10:10:05;100147.88;;;21.87;41.95
4410;BME280;2218;51.408;7.208;2023-05-16T10:12:35;100146.22;;;21.86;42.46
4410;BME280;2218;51.408;7.208;2023-05-16T10:15:07;100142.72;;;21.86;41.80
4410;BME280;2218;51.408;7.208;2023-05-16T10:17:38;100142.84;;;21.84;42.23
4410;BME280;2218;51.408;7.208;2023-05-16T10:20:09;100141.16;;;21.83;42.60
4410;BME280;2218;51.408;7.208;2023-05-16T10:22:43;100144.66;;;21.84;42.02
4410;BME280;2218;51.408;7.208;2023-05-16T10:25:19;100144.66;;;21.84;42.47
4410;BME280;2218;51.408;7.208;2023-05-16T10:27:50;100142.09;;;21.82;42.18
4410;BME280;2218;51.408;7.208;2023-05-16T10:30:20;100142.34;;;21.79;42.65
4410;BME280;2218;51.408;7.208;2023-05-16T10:32:48;100145.81;;;21.80;41.99
4410;BME280;2218;51.408;7.208;2023-05-16T10:35:16;100142.44;;;21.78;42.31
4410;BME280;2218;51.408;7.208;2023-05-16T10:37:43;100137.13;;;21.78;42.55
4410;BME280;2218;51.408;7.208;2023-05-16T10:40:12;100138.00;;;21.78;42.63
4410;BME280;2218;51.408;7.208;2023-05-16T10:42:46;100138.00;;;21.78;42.75
4410;BME280;2218;51.408;7.208;2023-05-16T10:45:23;100138.84;;;21.79;42.15
4410;BME280;2218;51.408;7.208;2023-05-16T10:47:54;100138.00;;;21.78;42.03
4410;BME280;2218;51.408;7.208;2023-05-16T10:50:32;100139.69;;;21.79;41.22
4410;BME280;2218;51.408;7.208;2023-05-16T10:53:20;100143.31;;;21.78;41.23
4410;BME280;2218;51.408;7.208;2023-05-16T10:56:07;100146.66;;;21.80;40.49
4410;BME280;2218;51.408;7.208;2023-05-16T10:58:42;100146.66;;;21.80;40.98
4410;BME280;2218;51.408;7.208;2023-05-16T11:01:22;100152.78;;;21.81;39.86
4410;BME280;2218;51.408;7.208;2023-05-16T11:04:08;100145.59;;;21.83;40.48
4410;BME280;2218;51.408;7.208;2023-05-16T11:06:53;100148.13;;;21.84;40.04
4410;BME280;2218;51.408;7.208;2023-05-16T11:09:25;100143.81;;;21.83;39.67
4410;BME280;2218;51.408;7.208;2023-05-16T11:11:56;100149.81;;;21.85;39.44
4410;BME280;2218;51.408;7.208;2023-05-16T11:14:25;100140.06;;;21.86;39.42
4410;BME280;2218;51.408;7.208;2023-05-16T11:17:01;100144.53;;;21.85;39.57
4410;BME280;2218;51.408;7.208;2023-05-16T11:19:38;100144.53;;;21.85;39.57
4410;BME280;2218;51.408;7.208;2023-05-16T11:22:10;100143.69;;;21.85;39.81
4410;BME280;2218;51.408;7.208;2023-05-16T11:24:50;100143.69;;;21.85;40.20
4410;BME280;2218;51.408;7.208;2023-05-16T11:27:24;100139.34;;;21.84;40.38
4410;BME280;2218;51.408;7.208;2023-05-16T11:29:54;100136.72;;;21.84;39.89
4410;BME280;2218;51.408;7.208;2023-05-16T11:32:23;100135.88;;;21.83;40.47
4410;BME280;2218;51.408;7.208;2023-05-16T11:34:51;100129.63;;;21.84;40.18
4410;BME280;2218;51.408;7.208;2023-05-16T11:37:19;100139.22;;;21.85;40.63
4410;BME280;2218;51.408;7.208;2023-05-16T11:39:47;100128.66;;;21.85;40.76
4410;BME280;2218;51.408;7.208;2023-05-16T11:42:14;100137.56;;;21.84;40.80
4410;BME280;2218;51.408;7.208;2023-05-16T11:44:43;100130.56;;;21.83;40.55
4410;BME280;2218;51.408;7.208;2023-05-16T11:47:10;100128.88;;;21.82;40.85
4410;BME280;2218;51.408;7.208;2023-05-16T11:49:39;100133.22;;;21.83;40.62
4410;BME280;2218;51.408;7.208;2023-05-16T11:52:07;100140.28;;;21.83;41.11
4410;BME280;2218;51.408;7.208;2023-05-16T11:54:35;100144.75;;;21.82;40.81
4410;BME280;2218;51.408;7.208;2023-05-16T11:57:03;100147.38;;;21.82;40.84
4410;BME280;2218;51.408;7.208;2023-05-16T11:59:30;100160.63;;;21.82;40.66
4410;BME280;2218;51.408;7.208;2023-05-16T12:02:02;100152.69;;;21.82;40.70
4410;BME280;2218;51.408;7.208;2023-05-16T12:04:29;100151.75;;;21.83;40.79
4410;BME280;2218;51.408;7.208;2023-05-16T12:07:01;100148.84;;;21.86;40.98
4410;BME280;2218;51.408;7.208;2023-05-16T12:09:29;100151.50;;;21.86;41.07
4410;BME280;2218;51.408;7.208;2023-05-16T12:11:56;100143.44;;;21.88;40.74
4410;BME280;2218;51.408;7.208;2023-05-16T12:14:24;100146.97;;;21.88;40.77
4410;BME280;2218;51.408;7.208;2023-05-16T12:16:52;100137.09;;;21.90;41.04
4410;BME280;2218;51.408;7.208;2023-05-16T12:19:20;100127.22;;;21.92;41.37
4410;BME280;2218;51.408;7.208;2023-05-16T12:21:51;100124.59;;;21.92;40.82
4410;BME280;2218;51.408;7.208;2023-05-16T12:24:20;100123.53;;;21.95;41.20
4410;BME280;2218;51.408;7.208;2023-05-16T12:29:14;100118.84;;;21.99;41.00
4410;BME280;2218;51.408;7.208;2023-05-16T12:31:41;100116.31;;;21.97;40.79
4410;BME280;2218;51.408;7.208;2023-05-16T12:34:15;100115.59;;;21.95;40.92
4410;BME280;2218;51.408;7.208;2023-05-16T12:36:42;100124.59;;;21.92;41.33
4410;BME280;2218;51.408;7.208;2023-05-16T12:39:12;100126.38;;;21.92;41.26
4410;BME280;2218;51.408;7.208;2023-05-16T12:41:41;100124.59;;;21.92;40.85
4410;BME280;2218;51.408;7.208;2023-05-16T12:44:12;100125.53;;;21.91;41.02
4410;BME280;2218;51.408;7.208;2023-05-16T12:46:46;100128.09;;;21.93;41.04
4410;BME280;2218;51.408;7.208;2023-05-16T12:49:13;100125.34;;;21.94;41.08
4410;BME280;2218;51.408;7.208;2023-05-16T12:51:48;100137.47;;;21.97;40.34
4410;BME280;2218;51.408;7.208;2023-05-16T12:54:17;100134.94;;;21.96;41.08
4410;BME280;2218;51.408;7.208;2023-05-16T12:56:46;100133.03;;;21.98;40.18
4410;BME280;2218;51.408;7.208;2023-05-16T13:01:40;100128.59;;;21.98;39.96
4410;BME280;2218;51.408;7.208;2023-05-16T13:04:09;100132.81;;;22.01;39.99
4410;BME280;2218;51.408;7.208;2023-05-16T13:06:40;100122.22;;;22.01;39.90
4410;BME280;2218;51.408;7.208;2023-05-16T13:09:07;100127.72;;;21.98;39.21
4410;BME280;2218;51.408;7.208;2023-05-16T13:11:35;100127.84;;;21.96;39.39
4410;BME280;2218;51.408;7.208;2023-05-16T13:14:03;100124.38;;;21.96;39.22
4410;BME280;2218;51.408;7.208;2023-05-16T13:16:30;100130.50;;;21.96;39.28
4410;BME280;2218;51.408;7.208;2023-05-16T13:18:57;100131.34;;;21.97;39.46
4410;BME280;2218;51.408;7.208;2023-05-16T13:21:24;100134.94;;;21.96;39.05
4410;BME280;2218;51.408;7.208;2023-05-16T13:23:52;100142.75;;;21.97;38.75
4410;BME280;2218;51.408;7.208;2023-05-16T13:26:19;100140.25;;;21.96;38.71
4410;BME280;2218;51.408;7.208;2023-05-16T13:28:46;100130.50;;;21.96;38.73
4410;BME280;2218;51.408;7.208;2023-05-16T13:31:17;100131.34;;;21.97;39.15
4410;BME280;2218;51.408;7.208;2023-05-16T13:33:44;100134.00;;;21.97;38.41